sensor_id;sensor_type;location;lat;lon;timestamp;P1;durP1;ratioP1;P2;durP2;ratioP2
74229;SDS011;62589;12.568;99.958;2022-08-03T00:01:47;3.00;;;0.30;;
74229;SDS011;62589;12.568;99.958;2022-08-03T00:04:14;2.28;;;0.20;;
74229;SDS011;62589;12.568;99.958;2022-08-03T00:06:40;2.50;;;0.20;;
74229;SDS011;62589;12.568;99.958;2022-08-03T00:09:07;2.78;;;0.50;;
74229;SDS011;62589;12.568;99.958;2022-08-03T00:11:35;1.95;;;0.60;;
74229;SDS011;62589;12.568;99.958;2022-08-03T00:14:03;1.95;;;0.40;;
74229;SDS011;62589;12.568;99.958;2022-08-03T00:16:30;5.90;;;0.38;;
74229;SDS011;62589;12.568;99.958;2022-08-03T00:18:57;1.90;;;0.52;;
74229;SDS011;62589;12.568;99.958;2022-08-03T00:21:23;1.38;;;0.10;;
74229;SDS011;62589;12.568;99.958;2022-08-03T00:23:49;2.05;;;0.17;;
74229;SDS011;62589;12.568;99.958;2022-08-03T00:26:16;4.43;;;0.35;;
74229;SDS011;62589;12.568;99.958;2022-08-03T00:28:42;2.03;;;0.50;;
74229;SDS011;62589;12.568;99.958;2022-08-03T00:31:09;2.95;;;0.30;;
74229;SDS011;62589;12.568;99.958;2022-08-03T00:33:35;3.60;;;0.52;;
74229;SDS011;62589;12.568;99.958;2022-08-03T00:36:02;1.75;;;0.57;;
74229;SDS011;62589;12.568;99.958;2022-08-03T00:38:28;4.47;;;0.30;;
74229;SDS011;62589;12.568;99.958;2022-08-03T00:40:54;3.28;;;0.55;;
74229;SDS011;62589;12.568;99.958;2022-08-03T00:43:23;1.52;;;0.38;;
74229;SDS011;62589;12.568;99.958;2022-08-03T00:45:52;0.43;;;0.10;;
74229;SDS011;62589;12.568;99.958;2022-08-03T00:48:19;2.08;;;0.40;;
74229;SDS011;62589;12.568;99.958;2022-08-03T00:50:45;3.17;;;0.38;;
74229;SDS011;62589;12.568;99.958;2022-08-03T00:53:12;3.13;;;0.40;;
74229;SDS011;62589;12.568;99.958;2022-08-03T00:55:39;1.85;;;0.30;;
74229;SDS011;62589;12.568;99.958;2022-08-03T00:58:06;4.30;;;0.50;;
74229;SDS011;62589;12.568;99.958;2022-08-03T01:00:35;2.65;;;0.70;;
74229;SDS011;62589;12.568;99.958;2022-08-03T01:03:04;2.03;;;0.50;;
74229;SDS011;62589;12.568;99.958;2022-08-03T01:05:35;1.33;;;0.45;;
74229;SDS011;62589;12.568;99.958;2022-08-03T01:08:32;2.40;;;0.40;;
74229;SDS011;62589;12.568;99.958;2022-08-03T01:17:20;1.75;;;0.30;;
74229;SDS011;62589;12.568;99.958;2022-08-03T01:20:08;1.98;;;0.30;;
74229;SDS011;62589;12.568;99.958;2022-08-03T01:22:50;2.78;;;0.50;;
74229;SDS011;62589;12.568;99.958;2022-08-03T01:25:37;1.85;;;0.55;;
74229;SDS011;62589;12.568;99.958;2022-08-03T01:31:14;3.10;;;0.50;;
74229;SDS011;62589;12.568;99.958;2022-08-03T01:33:48;2.58;;;0.93;;
74229;SDS011;62589;12.568;99.958;2022-08-03T01:36:23;2.13;;;0.50;;
74229;SDS011;62589;12.568;99.958;2022-08-03T01:38:58;1.92;;;0.70;;
74229;SDS011;62589;12.568;99.958;2022-08-03T01:41:32;2.70;;;0.80;;
74229;SDS011;62589;12.568;99.958;2022-08-03T01:44:09;1.65;;;0.80;;
74229;SDS011;62589;12.568;99.958;2022-08-03T01:46:37;6.20;;;1.33;;
74229;SDS011;62589;12.568;99.958;2022-08-03T01:49:06;3.28;;;0.90;;
74229;SDS011;62589;12.568;99.958;2022-08-03T01:51:37;3.65;;;0.88;;
74229;SDS011;62589;12.568;99.958;2022-08-03T01:54:06;1.75;;;0.70;;
74229;SDS011;62589;12.568;99.958;2022-08-03T01:56:36;1.33;;;0.52;;
74229;SDS011;62589;12.568;99.958;2022-08-03T01:59:04;2.85;;;0.70;;
74229;SDS011;62589;12.568;99.958;2022-08-03T02:01:33;1.77;;;0.60;;
74229;SDS011;62589;12.568;99.958;2022-08-03T02:04:02;2.90;;;0.75;;
74229;SDS011;62589;12.568;99.958;2022-08-03T02:06:31;1.90;;;0.73;;
74229;SDS011;62589;12.568;99.958;2022-08-03T02:11:17;2.23;;;0.47;;
74229;SDS011;62589;12.568;99.958;2022-08-03T02:13:45;2.80;;;0.60;;
74229;SDS011;62589;12.568;99.958;2022-08-03T02:16:13;3.15;;;0.80;;
74229;SDS011;62589;12.568;99.958;2022-08-03T02:18:40;5.57;;;0.88;;
74229;SDS011;62589;12.568;99.958;2022-08-03T02:21:08;2.60;;;0.80;;
74229;SDS011;62589;12.568;99.958;2022-08-03T02:23:36;3.22;;;0.98;;
74229;SDS011;62589;12.568;99.958;2022-08-03T02:26:04;1.55;;;0.50;;
74229;SDS011;62589;12.568;99.958;2022-08-03T02:31:08;4.95;;;1.20;;
74229;SDS011;62589;12.568;99.958;2022-08-03T02:33:40;1.67;;;0.77;;
74229;SDS011;62589;12.568;99.958;2022-08-03T02:36:11;2.83;;;1.13;;
74229;SDS011;62589;12.568;99.958;2022-08-03T02:38:42;1.27;;;0.90;;
74229;SDS011;62589;12.568;99.958;2022-08-03T02:41:17;3.53;;;0.70;;
74229;SDS011;62589;12.568;99.958;2022-08-03T02:43:50;0.98;;;0.47;;
74229;SDS011;62589;12.568;99.958;2022-08-03T02:46:19;1.95;;;0.63;;
74229;SDS011;62589;12.568;99.958;2022-08-03T02:48:50;2.25;;;0.57;;
74229;SDS011;62589;12.568;99.958;2022-08-03T02:51:18;1.48;;;0.50;;
74229;SDS011;62589;12.568;99.958;2022-08-03T02:53:47;1.00;;;0.50;;
74229;SDS011;62589;12.568;99.958;2022-08-03T02:56:14;1.17;;;0.30;;
74229;SDS011;62589;12.568;99.958;2022-08-03T02:58:43;2.92;;;0.30;;
74229;SDS011;62589;12.568;99.958;2022-08-03T03:01:12;1.13;;;0.20;;
74229;SDS011;62589;12.568;99.958;2022-08-03T03:03:39;1.00;;;0.10;;
74229;SDS011;62589;12.568;99.958;2022-08-03T03:06:06;1.30;;;0.10;;
74229;SDS011;62589;12.568;99.958;2022-08-03T03:08:33;0.35;;;0.10;;
74229;SDS011;62589;12.568;99.958;2022-08-03T03:11:01;2.95;;;0.13;;
74229;SDS011;62589;12.568;99.958;2022-08-03T03:13:29;0.75;;;0.10;;
74229;SDS011;62589;12.568;99.958;2022-08-03T03:15:59;0.60;;;0.10;;
74229;SDS011;62589;12.568;99.958;2022-08-03T03:18:27;1.70;;;0.20;;
74229;SDS011;62589;12.568;99.958;2022-08-03T03:20:55;1.00;;;0.10;;
74229;SDS011;62589;12.568;99.958;2022-08-03T03:23:23;0.43;;;0.10;;
74229;SDS011;62589;12.568;99.958;2022-08-03T03:25:51;0.63;;;0.15;;
74229;SDS011;62589;12.568;99.958;2022-08-03T03:28:21;0.15;;;0.00;;
74229;SDS011;62589;12.568;99.958;2022-08-03T03:30:48;0.05;;;0.00;;
74229;SDS011;62589;12.568;99.958;2022-08-03T03:33:16;0.52;;;0.00;;
74229;SDS011;62589;12.568;99.958;2022-08-03T03:35:42;0.28;;;0.00;;
74229;SDS011;62589;12.568;99.958;2022-08-03T03:38:11;0.73;;;0.10;;
74229;SDS011;62589;12.568;99.958;2022-08-03T03:40:37;2.00;;;0.10;;
74229;SDS011;62589;12.568;99.958;2022-08-03T03:43:08;0.28;;;0.00;;
74229;SDS011;62589;12.568;99.958;2022-08-03T03:45:36;0.77;;;0.00;;
74229;SDS011;62589;12.568;99.958;2022-08-03T03:48:05;0.28;;;0.00;;
74229;SDS011;62589;12.568;99.958;2022-08-03T03:50:33;0.08;;;0.00;;
74229;SDS011;62589;12.568;99.958;2022-08-03T03:53:02;0.10;;;0.00;;
74229;SDS011;62589;12.568;99.958;2022-08-03T03:55:29;0.55;;;0.52;;
74229;SDS011;62589;12.568;99.958;2022-08-03T03:57:55;1.40;;;0.30;;
74229;SDS011;62589;12.568;99.958;2022-08-03T04:00:22;0.95;;;0.20;;
74229;SDS011;62589;12.568;99.958;2022-08-03T04:02:49;0.77;;;0.10;;
74229;SDS011;62589;12.568;99.958;2022-08-03T04:05:15;0.00;;;0.00;;
74229;SDS011;62589;12.568;99.958;2022-08-03T04:07:57;0.20;;;0.00;;
74229;SDS011;62589;12.568;99.958;2022-08-03T04:10:46;0.55;;;0.00;;
74229;SDS011;62589;12.568;99.958;2022-08-03T04:13:26;0.10;;;0.00;;
74229;SDS011;62589;12.568;99.958;2022-08-03T04:15:58;1.27;;;0.10;;
74229;SDS011;62589;12.568;99.958;2022-08-03T04:18:26;0.38;;;0.00;;
74229;SDS011;62589;12.568;99.958;2022-08-03T04:20:58;0.20;;;0.00;;
74229;SDS011;62589;12.568;99.958;2022-08-03T04:23:32;0.70;;;0.00;;
74229;SDS011;62589;12.568;99.958;2022-08-03T04:26:02;0.98;;;0.08;;
74229;SDS011;62589;12.568;99.958;2022-08-03T04:28:34;0.43;;;0.10;;
74229;SDS011;62589;12.568;99.958;2022-08-03T04:31:02;0.93;;;0.13;;
74229;SDS011;62589;12.568;99.958;2022-08-03T04:33:32;0.30;;;0.10;;
74229;SDS011;62589;12.568;99.958;2022-08-03T04:36:03;1.08;;;0.00;;
74229;SDS011;62589;12.568;99.958;2022-08-03T04:38:35;0.68;;;0.10;;
74229;SDS011;62589;12.568;99.958;2022-08-03T04:41:05;1.42;;;0.10;;
74229;SDS011;62589;12.568;99.958;2022-08-03T04:43:32;2.13;;;0.17;;
74229;SDS011;62589;12.568;99.958;2022-08-03T04:46:00;1.48;;;0.10;;
74229;SDS011;62589;12.568;99.958;2022-08-03T04:48:29;0.57;;;0.00;;
74229;SDS011;62589;12.568;99.958;2022-08-03T04:50:56;1.45;;;0.20;;
74229;SDS011;62589;12.568;99.958;2022-08-03T04:53:25;1.45;;;0.10;;
74229;SDS011;62589;12.568;99.958;2022-08-03T04:55:51;2.22;;;0.20;;
74229;SDS011;62589;12.568;99.958;2022-08-03T04:58:18;29.00;;;16.33;;
74229;SDS011;62589;12.568;99.958;2022-08-03T05:00:44;25.70;;;14.63;;
74229;SDS011;62589;12.568;99.958;2022-08-03T05:03:15;4.53;;;2.67;;
74229;SDS011;62589;12.568;99.958;2022-08-03T05:05:42;2.20;;;1.08;;
74229;SDS011;62589;12.568;99.958;2022-08-03T05:08:08;4.63;;;2.22;;
74229;SDS011;62589;12.568;99.958;2022-08-03T05:10:35;3.88;;;1.70;;
74229;SDS011;62589;12.568;99.958;2022-08-03T05:13:02;3.28;;;1.73;;
74229;SDS011;62589;12.568;99.958;2022-08-03T05:15:28;34.08;;;18.17;;
74229;SDS011;62589;12.568;99.958;2022-08-03T05:17:55;13.65;;;6.82;;
74229;SDS011;62589;12.568;99.958;2022-08-03T05:20:21;3.65;;;0.65;;
74229;SDS011;62589;12.568;99.958;2022-08-03T05:22:48;2.60;;;0.85;;
74229;SDS011;62589;12.568;99.958;2022-08-03T05:25:14;3.72;;;1.70;;
74229;SDS011;62589;12.568;99.958;2022-08-03T05:27:41;26.88;;;14.52;;
74229;SDS011;62589;12.568;99.958;2022-08-03T05:30:08;29.95;;;15.73;;
74229;SDS011;62589;12.568;99.958;2022-08-03T05:32:34;23.02;;;11.30;;
74229;SDS011;62589;12.568;99.958;2022-08-03T05:35:01;23.83;;;12.45;;
74229;SDS011;62589;12.568;99.958;2022-08-03T05:37:28;13.48;;;6.88;;
74229;SDS011;62589;12.568;99.958;2022-08-03T05:39:55;18.65;;;9.95;;
74229;SDS011;62589;12.568;99.958;2022-08-03T05:42:21;19.55;;;10.48;;
74229;SDS011;62589;12.568;99.958;2022-08-03T05:44:48;13.13;;;7.07;;
74229;SDS011;62589;12.568;99.958;2022-08-03T05:47:14;10.20;;;5.18;;
74229;SDS011;62589;12.568;99.958;2022-08-03T05:49:41;4.07;;;1.30;;
74229;SDS011;62589;12.568;99.958;2022-08-03T05:52:08;2.15;;;0.70;;
74229;SDS011;62589;12.568;99.958;2022-08-03T05:54:34;2.33;;;0.60;;
74229;SDS011;62589;12.568;99.958;2022-08-03T05:57:01;3.03;;;0.38;;
74229;SDS011;62589;12.568;99.958;2022-08-03T05:59:28;3.03;;;0.45;;
74229;SDS011;62589;12.568;99.958;2022-08-03T06:01:54;5.25;;;0.95;;
74229;SDS011;62589;12.568;99.958;2022-08-03T06:04:21;4.00;;;0.40;;
74229;SDS011;62589;12.568;99.958;2022-08-03T06:06:47;3.72;;;0.52;;
74229;SDS011;62589;12.568;99.958;2022-08-03T06:09:15;2.97;;;0.50;;
74229;SDS011;62589;12.568;99.958;2022-08-03T06:11:42;8.88;;;4.22;;
74229;SDS011;62589;12.568;99.958;2022-08-03T06:14:08;13.25;;;7.20;;
74229;SDS011;62589;12.568;99.958;2022-08-03T06:16:35;5.85;;;1.73;;
74229;SDS011;62589;12.568;99.958;2022-08-03T06:19:01;7.97;;;3.60;;
74229;SDS011;62589;12.568;99.958;2022-08-03T06:21:28;4.15;;;2.13;;
74229;SDS011;62589;12.568;99.958;2022-08-03T06:23:54;5.70;;;1.58;;
74229;SDS011;62589;12.568;99.958;2022-08-03T06:26:22;10.40;;;5.47;;
74229;SDS011;62589;12.568;99.958;2022-08-03T06:28:49;14.40;;;5.10;;
74229;SDS011;62589;12.568;99.958;2022-08-03T06:31:16;10.57;;;4.43;;
74229;SDS011;62589;12.568;99.958;2022-08-03T06:33:43;12.20;;;5.45;;
74229;SDS011;62589;12.568;99.958;2022-08-03T06:36:09;9.88;;;4.50;;
74229;SDS011;62589;12.568;99.958;2022-08-03T06:38:36;7.45;;;1.67;;
74229;SDS011;62589;12.568;99.958;2022-08-03T06:41:02;9.30;;;2.40;;
74229;SDS011;62589;12.568;99.958;2022-08-03T06:43:29;6.97;;;2.00;;
74229;SDS011;62589;12.568;99.958;2022-08-03T06:45:55;10.65;;;2.05;;
74229;SDS011;62589;12.568;99.958;2022-08-03T06:48:22;4.85;;;1.70;;
74229;SDS011;62589;12.568;99.958;2022-08-03T06:50:48;3.47;;;0.95;;
74229;SDS011;62589;12.568;99.958;2022-08-03T06:53:15;3.78;;;1.67;;
74229;SDS011;62589;12.568;99.958;2022-08-03T06:55:42;4.38;;;2.08;;
74229;SDS011;62589;12.568;99.958;2022-08-03T06:58:08;4.05;;;1.75;;
74229;SDS011;62589;12.568;99.958;2022-08-03T07:00:35;7.40;;;1.35;;
74229;SDS011;62589;12.568;99.958;2022-08-03T07:03:02;4.47;;;1.10;;
74229;SDS011;62589;12.568;99.958;2022-08-03T07:05:28;5.70;;;2.10;;
74229;SDS011;62589;12.568;99.958;2022-08-03T07:07:57;4.95;;;1.67;;
74229;SDS011;62589;12.568;99.958;2022-08-03T07:10:26;4.38;;;0.70;;
74229;SDS011;62589;12.568;99.958;2022-08-03T07:12:53;4.07;;;0.50;;
74229;SDS011;62589;12.568;99.958;2022-08-03T07:15:19;6.07;;;0.70;;
74229;SDS011;62589;12.568;99.958;2022-08-03T07:17:46;5.10;;;0.70;;
74229;SDS011;62589;12.568;99.958;2022-08-03T07:20:12;2.65;;;0.65;;
74229;SDS011;62589;12.568;99.958;2022-08-03T07:22:41;2.95;;;0.70;;
74229;SDS011;62589;12.568;99.958;2022-08-03T07:25:08;4.85;;;0.60;;
74229;SDS011;62589;12.568;99.958;2022-08-03T07:27:35;1.85;;;0.45;;
74229;SDS011;62589;12.568;99.958;2022-08-03T07:30:04;2.67;;;0.50;;
74229;SDS011;62589;12.568;99.958;2022-08-03T07:32:32;2.88;;;0.85;;
74229;SDS011;62589;12.568;99.958;2022-08-03T07:35:00;2.92;;;1.85;;
74229;SDS011;62589;12.568;99.958;2022-08-03T07:37:28;3.05;;;1.50;;
74229;SDS011;62589;12.568;99.958;2022-08-03T07:39:55;1.90;;;0.45;;
74229;SDS011;62589;12.568;99.958;2022-08-03T07:42:21;1.20;;;0.30;;
74229;SDS011;62589;12.568;99.958;2022-08-03T07:44:48;2.10;;;0.20;;
74229;SDS011;62589;12.568;99.958;2022-08-03T07:47:33;6.22;;;0.30;;
74229;SDS011;62589;12.568;99.958;2022-08-03T07:49:59;2.42;;;0.70;;
74229;SDS011;62589;12.568;99.958;2022-08-03T07:52:26;1.58;;;0.30;;
74229;SDS011;62589;12.568;99.958;2022-08-03T07:55:05;0.95;;;0.13;;
74229;SDS011;62589;12.568;99.958;2022-08-03T07:57:32;0.75;;;0.10;;
74229;SDS011;62589;12.568;99.958;2022-08-03T07:59:59;1.23;;;0.30;;
74229;SDS011;62589;12.568;99.958;2022-08-03T08:02:25;0.50;;;0.00;;
74229;SDS011;62589;12.568;99.958;2022-08-03T08:04:52;0.10;;;0.00;;
74229;SDS011;62589;12.568;99.958;2022-08-03T08:07:19;1.88;;;0.40;;
74229;SDS011;62589;12.568;99.958;2022-08-03T08:09:45;1.45;;;0.30;;
74229;SDS011;62589;12.568;99.958;2022-08-03T08:12:12;0.77;;;0.10;;
74229;SDS011;62589;12.568;99.958;2022-08-03T08:14:39;0.75;;;0.00;;
74229;SDS011;62589;12.568;99.958;2022-08-03T08:17:06;0.80;;;0.15;;
74229;SDS011;62589;12.568;99.958;2022-08-03T08:19:32;0.82;;;0.20;;
74229;SDS011;62589;12.568;99.958;2022-08-03T08:21:59;0.20;;;0.00;;
74229;SDS011;62589;12.568;99.958;2022-08-03T08:24:26;1.40;;;0.20;;
74229;SDS011;62589;12.568;99.958;2022-08-03T08:26:55;1.02;;;0.10;;
74229;SDS011;62589;12.568;99.958;2022-08-03T08:29:21;2.05;;;0.20;;
74229;SDS011;62589;12.568;99.958;2022-08-03T08:31:48;2.45;;;0.10;;
74229;SDS011;62589;12.568;99.958;2022-08-03T08:34:15;0.30;;;0.08;;
74229;SDS011;62589;12.568;99.958;2022-08-03T08:36:42;1.38;;;0.10;;
74229;SDS011;62589;12.568;99.958;2022-08-03T08:39:08;0.73;;;0.10;;
74229;SDS011;62589;12.568;99.958;2022-08-03T08:41:35;1.20;;;0.10;;
74229;SDS011;62589;12.568;99.958;2022-08-03T08:44:01;0.43;;;0.08;;
74229;SDS011;62589;12.568;99.958;2022-08-03T08:46:31;1.48;;;0.28;;
74229;SDS011;62589;12.568;99.958;2022-08-03T08:48:58;0.98;;;0.20;;
74229;SDS011;62589;12.568;99.958;2022-08-03T08:51:28;0.73;;;0.10;;
74229;SDS011;62589;12.568;99.958;2022-08-03T08:53:57;0.38;;;0.00;;
74229;SDS011;62589;12.568;99.958;2022-08-03T08:56:28;0.63;;;0.10;;
74229;SDS011;62589;12.568;99.958;2022-08-03T08:58:57;0.68;;;0.00;;
74229;SDS011;62589;12.568;99.958;2022-08-03T09:01:26;0.45;;;0.00;;
74229;SDS011;62589;12.568;99.958;2022-08-03T09:03:52;0.30;;;0.10;;
74229;SDS011;62589;12.568;99.958;2022-08-03T09:06:20;0.75;;;0.10;;
74229;SDS011;62589;12.568;99.958;2022-08-03T09:08:47;0.93;;;0.10;;
74229;SDS011;62589;12.568;99.958;2022-08-03T09:11:14;0.93;;;0.30;;
74229;SDS011;62589;12.568;99.958;2022-08-03T09:13:40;1.02;;;0.20;;
74229;SDS011;62589;12.568;99.958;2022-08-03T09:16:14;0.75;;;0.15;;
74229;SDS011;62589;12.568;99.958;2022-08-03T09:18:43;0.60;;;0.20;;
74229;SDS011;62589;12.568;99.958;2022-08-03T09:21:16;1.65;;;0.17;;
74229;SDS011;62589;12.568;99.958;2022-08-03T09:23:46;0.22;;;0.10;;
74229;SDS011;62589;12.568;99.958;2022-08-03T09:26:25;0.30;;;0.00;;
74229;SDS011;62589;12.568;99.958;2022-08-03T09:28:54;1.30;;;0.10;;
74229;SDS011;62589;12.568;99.958;2022-08-03T09:31:28;0.90;;;0.10;;
74229;SDS011;62589;12.568;99.958;2022-08-03T09:34:08;0.10;;;0.00;;
74229;SDS011;62589;12.568;99.958;2022-08-03T09:36:40;0.22;;;0.10;;
74229;SDS011;62589;12.568;99.958;2022-08-03T09:39:12;0.30;;;0.10;;
74229;SDS011;62589;12.568;99.958;2022-08-03T09:41:40;1.40;;;0.10;;
74229;SDS011;62589;12.568;99.958;2022-08-03T09:44:32;2.17;;;0.20;;
74229;SDS011;62589;12.568;99.958;2022-08-03T09:47:02;0.43;;;0.00;;
74229;SDS011;62589;12.568;99.958;2022-08-03T09:49:30;0.50;;;0.08;;
74229;SDS011;62589;12.568;99.958;2022-08-03T09:51:59;0.30;;;0.10;;
74229;SDS011;62589;12.568;99.958;2022-08-03T09:54:30;0.40;;;0.00;;
74229;SDS011;62589;12.568;99.958;2022-08-03T09:56:58;0.30;;;0.00;;
74229;SDS011;62589;12.568;99.958;2022-08-03T09:59:26;0.57;;;0.10;;
74229;SDS011;62589;12.568;99.958;2022-08-03T10:01:55;0.32;;;0.00;;
74229;SDS011;62589;12.568;99.958;2022-08-03T10:04:23;0.55;;;0.10;;
74229;SDS011;62589;12.568;99.958;2022-08-03T10:09:33;0.30;;;0.00;;
74229;SDS011;62589;12.568;99.958;2022-08-03T10:12:07;0.63;;;0.13;;
74229;SDS011;62589;12.568;99.958;2022-08-03T10:14:37;0.90;;;0.10;;
74229;SDS011;62589;12.568;99.958;2022-08-03T10:17:04;0.15;;;0.00;;
74229;SDS011;62589;12.568;99.958;2022-08-03T10:19:31;0.45;;;0.10;;
74229;SDS011;62589;12.568;99.958;2022-08-03T10:27:39;0.75;;;0.20;;
74229;SDS011;62589;12.568;99.958;2022-08-03T10:30:07;0.60;;;0.10;;
74229;SDS011;62589;12.568;99.958;2022-08-03T10:32:39;2.47;;;0.40;;
74229;SDS011;62589;12.568;99.958;2022-08-03T10:35:12;0.68;;;0.10;;
74229;SDS011;62589;12.568;99.958;2022-08-03T10:37:41;0.80;;;0.10;;
74229;SDS011;62589;12.568;99.958;2022-08-03T10:40:14;0.95;;;0.20;;
74229;SDS011;62589;12.568;99.958;2022-08-03T10:42:45;0.50;;;0.00;;
74229;SDS011;62589;12.568;99.958;2022-08-03T10:45:18;1.15;;;0.35;;
74229;SDS011;62589;12.568;99.958;2022-08-03T10:47:47;0.75;;;0.10;;
74229;SDS011;62589;12.568;99.958;2022-08-03T10:50:15;0.20;;;0.00;;
74229;SDS011;62589;12.568;99.958;2022-08-03T10:55:36;0.32;;;0.10;;
74229;SDS011;62589;12.568;99.958;2022-08-03T11:01:17;0.50;;;0.17;;
74229;SDS011;62589;12.568;99.958;2022-08-03T11:04:19;0.98;;;0.10;;
74229;SDS011;62589;12.568;99.958;2022-08-03T11:07:16;0.82;;;0.20;;
74229;SDS011;62589;12.568;99.958;2022-08-03T11:09:54;0.70;;;0.40;;
74229;SDS011;62589;12.568;99.958;2022-08-03T11:12:25;0.30;;;0.20;;
74229;SDS011;62589;12.568;99.958;2022-08-03T11:14:54;0.55;;;0.10;;
74229;SDS011;62589;12.568;99.958;2022-08-03T11:17:22;0.75;;;0.20;;
74229;SDS011;62589;12.568;99.958;2022-08-03T11:19:50;0.68;;;0.20;;
74229;SDS011;62589;12.568;99.958;2022-08-03T11:22:18;0.47;;;0.20;;
74229;SDS011;62589;12.568;99.958;2022-08-03T11:24:55;0.47;;;0.20;;
74229;SDS011;62589;12.568;99.958;2022-08-03T11:27:24;0.68;;;0.17;;
74229;SDS011;62589;12.568;99.958;2022-08-03T11:32:57;0.60;;;0.20;;
74229;SDS011;62589;12.568;99.958;2022-08-03T11:35:25;0.90;;;0.05;;
74229;SDS011;62589;12.568;99.958;2022-08-03T11:38:01;1.48;;;0.35;;
74229;SDS011;62589;12.568;99.958;2022-08-03T11:46:15;0.70;;;0.40;;
74229;SDS011;62589;12.568;99.958;2022-08-03T11:48:43;0.93;;;0.20;;
74229;SDS011;62589;12.568;99.958;2022-08-03T11:53:51;0.77;;;0.20;;
74229;SDS011;62589;12.568;99.958;2022-08-03T11:56:22;1.38;;;0.30;;
74229;SDS011;62589;12.568;99.958;2022-08-03T11:58:50;3.10;;;0.40;;
74229;SDS011;62589;12.568;99.958;2022-08-03T12:01:22;2.53;;;0.30;;
74229;SDS011;62589;12.568;99.958;2022-08-03T12:03:49;0.85;;;0.30;;
74229;SDS011;62589;12.568;99.958;2022-08-03T12:06:17;1.35;;;0.20;;
74229;SDS011;62589;12.568;99.958;2022-08-03T12:08:44;1.10;;;0.32;;
74229;SDS011;62589;12.568;99.958;2022-08-03T12:11:12;1.77;;;0.88;;
74229;SDS011;62589;12.568;99.958;2022-08-03T12:13:47;3.45;;;0.70;;
74229;SDS011;62589;12.568;99.958;2022-08-03T12:16:16;1.73;;;0.70;;
74229;SDS011;62589;12.568;99.958;2022-08-03T12:18:59;2.85;;;0.60;;
74229;SDS011;62589;12.568;99.958;2022-08-03T12:21:28;0.98;;;0.40;;
74229;SDS011;62589;12.568;99.958;2022-08-03T12:23:56;0.75;;;0.32;;
74229;SDS011;62589;12.568;99.958;2022-08-03T12:26:41;1.17;;;0.60;;
74229;SDS011;62589;12.568;99.958;2022-08-03T12:29:18;2.30;;;0.40;;
74229;SDS011;62589;12.568;99.958;2022-08-03T12:31:46;1.85;;;0.50;;
74229;SDS011;62589;12.568;99.958;2022-08-03T12:34:14;1.67;;;0.50;;
74229;SDS011;62589;12.568;99.958;2022-08-03T12:36:50;1.27;;;0.50;;
74229;SDS011;62589;12.568;99.958;2022-08-03T12:39:25;1.60;;;0.57;;
74229;SDS011;62589;12.568;99.958;2022-08-03T12:41:55;1.70;;;0.70;;
74229;SDS011;62589;12.568;99.958;2022-08-03T12:44:31;2.05;;;0.50;;
74229;SDS011;62589;12.568;99.958;2022-08-03T12:47:00;2.47;;;0.73;;
74229;SDS011;62589;12.568;99.958;2022-08-03T12:49:43;2.83;;;0.40;;
74229;SDS011;62589;12.568;99.958;2022-08-03T12:52:17;2.08;;;0.70;;
74229;SDS011;62589;12.568;99.958;2022-08-03T12:57:25;1.90;;;0.43;;
74229;SDS011;62589;12.568;99.958;2022-08-03T13:00:12;2.35;;;0.50;;
74229;SDS011;62589;12.568;99.958;2022-08-03T13:02:41;2.65;;;0.68;;
74229;SDS011;62589;12.568;99.958;2022-08-03T13:05:15;0.88;;;0.20;;
74229;SDS011;62589;12.568;99.958;2022-08-03T13:07:42;1.95;;;0.60;;
74229;SDS011;62589;12.568;99.958;2022-08-03T13:10:10;2.90;;;0.63;;
74229;SDS011;62589;12.568;99.958;2022-08-03T13:12:51;0.93;;;0.30;;
74229;SDS011;62589;12.568;99.958;2022-08-03T13:15:18;1.40;;;0.20;;
74229;SDS011;62589;12.568;99.958;2022-08-03T13:17:45;1.08;;;0.30;;
74229;SDS011;62589;12.568;99.958;2022-08-03T13:20:11;2.53;;;0.32;;
74229;SDS011;62589;12.568;99.958;2022-08-03T13:22:38;1.20;;;0.20;;
74229;SDS011;62589;12.568;99.958;2022-08-03T13:25:04;0.90;;;0.15;;
74229;SDS011;62589;12.568;99.958;2022-08-03T13:27:31;0.70;;;0.05;;
74229;SDS011;62589;12.568;99.958;2022-08-03T13:29:57;0.65;;;0.10;;
74229;SDS011;62589;12.568;99.958;2022-08-03T13:32:24;1.17;;;0.10;;
74229;SDS011;62589;12.568;99.958;2022-08-03T13:34:51;0.60;;;0.10;;
74229;SDS011;62589;12.568;99.958;2022-08-03T13:37:18;0.43;;;0.10;;
74229;SDS011;62589;12.568;99.958;2022-08-03T13:39:44;2.17;;;0.13;;
74229;SDS011;62589;12.568;99.958;2022-08-03T13:42:11;1.80;;;0.13;;
74229;SDS011;62589;12.568;99.958;2022-08-03T13:44:38;1.95;;;0.15;;
74229;SDS011;62589;12.568;99.958;2022-08-03T13:47:05;1.27;;;0.00;;
74229;SDS011;62589;12.568;99.958;2022-08-03T13:49:31;0.82;;;0.10;;
74229;SDS011;62589;12.568;99.958;2022-08-03T13:51:58;0.60;;;0.20;;
74229;SDS011;62589;12.568;99.958;2022-08-03T13:54:25;1.05;;;0.20;;
74229;SDS011;62589;12.568;99.958;2022-08-03T13:56:52;1.73;;;0.30;;
74229;SDS011;62589;12.568;99.958;2022-08-03T13:59:19;1.42;;;0.20;;
74229;SDS011;62589;12.568;99.958;2022-08-03T14:01:47;0.95;;;0.10;;
74229;SDS011;62589;12.568;99.958;2022-08-03T14:04:14;2.53;;;0.20;;
74229;SDS011;62589;12.568;99.958;2022-08-03T14:06:41;0.95;;;0.00;;
74229;SDS011;62589;12.568;99.958;2022-08-03T14:09:13;1.50;;;0.32;;
74229;SDS011;62589;12.568;99.958;2022-08-03T14:11:40;1.48;;;0.45;;
74229;SDS011;62589;12.568;99.958;2022-08-03T14:14:08;1.90;;;0.82;;
74229;SDS011;62589;12.568;99.958;2022-08-03T14:16:35;3.45;;;1.00;;
74229;SDS011;62589;12.568;99.958;2022-08-03T14:19:05;3.30;;;0.90;;
74229;SDS011;62589;12.568;99.958;2022-08-03T14:21:32;1.55;;;0.70;;
74229;SDS011;62589;12.568;99.958;2022-08-03T14:23:59;3.92;;;0.88;;
74229;SDS011;62589;12.568;99.958;2022-08-03T14:26:25;2.15;;;0.30;;
74229;SDS011;62589;12.568;99.958;2022-08-03T14:28:52;1.38;;;0.40;;
74229;SDS011;62589;12.568;99.958;2022-08-03T14:31:18;1.27;;;0.30;;
74229;SDS011;62589;12.568;99.958;2022-08-03T14:33:45;1.38;;;0.40;;
74229;SDS011;62589;12.568;99.958;2022-08-03T14:36:11;1.35;;;0.10;;
74229;SDS011;62589;12.568;99.958;2022-08-03T14:38:37;1.58;;;0.20;;
74229;SDS011;62589;12.568;99.958;2022-08-03T14:41:04;1.08;;;0.30;;
74229;SDS011;62589;12.568;99.958;2022-08-03T14:43:30;5.95;;;2.92;;
74229;SDS011;62589;12.568;99.958;2022-08-03T14:45:57;10.90;;;5.25;;
74229;SDS011;62589;12.568;99.958;2022-08-03T14:48:23;9.98;;;6.15;;
74229;SDS011;62589;12.568;99.958;2022-08-03T14:50:51;15.98;;;8.10;;
74229;SDS011;62589;12.568;99.958;2022-08-03T14:53:19;14.30;;;7.75;;
74229;SDS011;62589;12.568;99.958;2022-08-03T14:55:46;12.85;;;7.22;;
74229;SDS011;62589;12.568;99.958;2022-08-03T14:58:14;7.85;;;4.85;;
74229;SDS011;62589;12.568;99.958;2022-08-03T15:00:41;6.70;;;3.72;;
74229;SDS011;62589;12.568;99.958;2022-08-03T15:03:07;7.50;;;3.38;;
74229;SDS011;62589;12.568;99.958;2022-08-03T15:05:34;5.10;;;3.30;;
74229;SDS011;62589;12.568;99.958;2022-08-03T15:08:00;4.18;;;2.80;;
74229;SDS011;62589;12.568;99.958;2022-08-03T15:10:26;6.05;;;2.70;;
74229;SDS011;62589;12.568;99.958;2022-08-03T15:12:53;4.97;;;2.33;;
74229;SDS011;62589;12.568;99.958;2022-08-03T15:15:20;5.50;;;2.30;;
74229;SDS011;62589;12.568;99.958;2022-08-03T15:17:46;4.22;;;1.98;;
74229;SDS011;62589;12.568;99.958;2022-08-03T15:20:13;2.30;;;1.15;;
74229;SDS011;62589;12.568;99.958;2022-08-03T15:22:39;4.78;;;1.00;;
74229;SDS011;62589;12.568;99.958;2022-08-03T15:25:06;1.85;;;0.85;;
74229;SDS011;62589;12.568;99.958;2022-08-03T15:27:32;3.20;;;1.25;;